sensor_id;sensor_type;location;lat;lon;timestamp;P1;durP1;ratioP1;P2;durP2;ratioP2
9948;SDS011;5013;51.840;8.276;2024-02-26T00:02:20;3.93;;;3.57;;
9948;SDS011;5013;51.840;8.276;2024-02-26T00:04:45;3.67;;;3.40;;
9948;SDS011;5013;51.840;8.276;2024-02-26T00:07:11;4.57;;;3.00;;
9948;SDS011;5013;51.840;8.276;2024-02-26T00:09:37;3.63;;;3.33;;
9948;SDS011;5013;51.840;8.276;2024-02-26T00:12:02;3.37;;;3.10;;
9948;SDS011;5013;51.840;8.276;2024-02-26T00:14:29;5.13;;;3.00;;
9948;SDS011;5013;51.840;8.276;2024-02-26T00:16:55;5.83;;;2.50;;
9948;SDS011;5013;51.840;8.276;2024-02-26T00:19:20;4.77;;;3.00;;
9948;SDS011;5013;51.840;8.276;2024-02-26T00:21:46;5.33;;;2.60;;
9948;SDS011;5013;51.840;8.276;2024-02-26T00:24:11;3.50;;;2.90;;
9948;SDS011;5013;51.840;8.276;2024-02-26T00:26:37;2.60;;;2.50;;
9948;SDS011;5013;51.840;8.276;2024-02-26T00:29:03;3.03;;;2.63;;
9948;SDS011;5013;51.840;8.276;2024-02-26T00:31:28;3.47;;;3.27;;
9948;SDS011;5013;51.840;8.276;2024-02-26T00:33:54;3.17;;;2.70;;
9948;SDS011;5013;51.840;8.276;2024-02-26T00:36:19;2.77;;;2.60;;
9948;SDS011;5013;51.840;8.276;2024-02-26T00:38:45;3.83;;;2.90;;
9948;SDS011;5013;51.840;8.276;2024-02-26T00:41:15;3.10;;;2.90;;
9948;SDS011;5013;51.840;8.276;2024-02-26T00:43:45;4.87;;;2.43;;
9948;SDS011;5013;51.840;8.276;2024-02-26T00:46:11;4.17;;;2.90;;
9948;SDS011;5013;51.840;8.276;2024-02-26T00:48:37;3.00;;;2.80;;
9948;SDS011;5013;51.840;8.276;2024-02-26T00:51:02;7.77;;;2.77;;
9948;SDS011;5013;51.840;8.276;2024-02-26T00:53:30;3.13;;;2.93;;
9948;SDS011;5013;51.840;8.276;2024-02-26T00:55:56;4.20;;;2.70;;
9948;SDS011;5013;51.840;8.276;2024-02-26T00:58:23;3.90;;;2.87;;
9948;SDS011;5013;51.840;8.276;2024-02-26T01:00:49;4.77;;;2.93;;
9948;SDS011;5013;51.840;8.276;2024-02-26T01:03:15;8.10;;;2.80;;
9948;SDS011;5013;51.840;8.276;2024-02-26T01:05:42;3.13;;;2.87;;
9948;SDS011;5013;51.840;8.276;2024-02-26T01:08:07;3.97;;;3.43;;
9948;SDS011;5013;51.840;8.276;2024-02-26T01:10:33;2.80;;;2.60;;
9948;SDS011;5013;51.840;8.276;2024-02-26T01:12:59;2.60;;;2.40;;
9948;SDS011;5013;51.840;8.276;2024-02-26T01:15:24;2.33;;;2.13;;
9948;SDS011;5013;51.840;8.276;2024-02-26T01:17:50;2.03;;;1.87;;
9948;SDS011;5013;51.840;8.276;2024-02-26T01:20:16;2.27;;;2.07;;
9948;SDS011;5013;51.840;8.276;2024-02-26T01:22:42;1.57;;;1.50;;
9948;SDS011;5013;51.840;8.276;2024-02-26T01:25:08;2.10;;;1.90;;
9948;SDS011;5013;51.840;8.276;2024-02-26T01:27:35;1.93;;;1.80;;
9948;SDS011;5013;51.840;8.276;2024-02-26T01:30:02;2.50;;;1.97;;
9948;SDS011;5013;51.840;8.276;2024-02-26T01:32:31;2.37;;;2.17;;
9948;SDS011;5013;51.840;8.276;2024-02-26T01:34:56;2.83;;;2.63;;
9948;SDS011;5013;51.840;8.276;2024-02-26T01:37:22;2.97;;;2.60;;
9948;SDS011;5013;51.840;8.276;2024-02-26T01:39:47;3.00;;;2.70;;
9948;SDS011;5013;51.840;8.276;2024-02-26T01:42:13;3.50;;;3.20;;
9948;SDS011;5013;51.840;8.276;2024-02-26T01:44:39;4.47;;;3.43;;
9948;SDS011;5013;51.840;8.276;2024-02-26T01:47:07;3.33;;;3.13;;
9948;SDS011;5013;51.840;8.276;2024-02-26T01:49:36;2.83;;;2.70;;
9948;SDS011;5013;51.840;8.276;2024-02-26T01:52:02;3.10;;;2.90;;
9948;SDS011;5013;51.840;8.276;2024-02-26T01:54:29;3.37;;;3.07;;
9948;SDS011;5013;51.840;8.276;2024-02-26T01:56:55;3.10;;;2.90;;
9948;SDS011;5013;51.840;8.276;2024-02-26T01:59:21;3.63;;;3.20;;
9948;SDS011;5013;51.840;8.276;2024-02-26T02:01:48;3.83;;;2.80;;
9948;SDS011;5013;51.840;8.276;2024-02-26T02:04:19;2.97;;;2.50;;
9948;SDS011;5013;51.840;8.276;2024-02-26T02:06:45;2.40;;;2.30;;
9948;SDS011;5013;51.840;8.276;2024-02-26T02:09:11;2.50;;;2.40;;
9948;SDS011;5013;51.840;8.276;2024-02-26T02:11:37;2.87;;;2.13;;
9948;SDS011;5013;51.840;8.276;2024-02-26T02:14:02;2.57;;;2.43;;
9948;SDS011;5013;51.840;8.276;2024-02-26T02:16:28;2.50;;;2.30;;
9948;SDS011;5013;51.840;8.276;2024-02-26T02:18:54;2.20;;;2.10;;
9948;SDS011;5013;51.840;8.276;2024-02-26T02:21:19;2.37;;;2.20;;
9948;SDS011;5013;51.840;8.276;2024-02-26T02:23:45;2.27;;;1.93;;
9948;SDS011;5013;51.840;8.276;2024-02-26T02:26:14;1.77;;;1.67;;
9948;SDS011;5013;51.840;8.276;2024-02-26T02:28:40;2.50;;;1.83;;
9948;SDS011;5013;51.840;8.276;2024-02-26T02:31:06;1.80;;;1.70;;
9948;SDS011;5013;51.840;8.276;2024-02-26T02:33:33;2.17;;;1.97;;
9948;SDS011;5013;51.840;8.276;2024-02-26T02:35:59;1.83;;;1.73;;
9948;SDS011;5013;51.840;8.276;2024-02-26T02:38:25;3.23;;;1.87;;
9948;SDS011;5013;51.840;8.276;2024-02-26T02:40:54;1.97;;;1.77;;
9948;SDS011;5013;51.840;8.276;2024-02-26T02:43:19;2.50;;;1.70;;
9948;SDS011;5013;51.840;8.276;2024-02-26T02:45:45;3.67;;;2.00;;
9948;SDS011;5013;51.840;8.276;2024-02-26T02:48:10;1.73;;;1.73;;
9948;SDS011;5013;51.840;8.276;2024-02-26T02:50:36;1.90;;;1.80;;
9948;SDS011;5013;51.840;8.276;2024-02-26T02:53:02;2.17;;;1.63;;
9948;SDS011;5013;51.840;8.276;2024-02-26T02:55:27;1.57;;;1.47;;
9948;SDS011;5013;51.840;8.276;2024-02-26T02:57:53;1.73;;;1.63;;
9948;SDS011;5013;51.840;8.276;2024-02-26T03:00:19;1.67;;;1.57;;
9948;SDS011;5013;51.840;8.276;2024-02-26T03:02:44;1.90;;;1.80;;
9948;SDS011;5013;51.840;8.276;2024-02-26T03:05:11;1.90;;;1.60;;
9948;SDS011;5013;51.840;8.276;2024-02-26T03:07:37;1.50;;;1.50;;
9948;SDS011;5013;51.840;8.276;2024-02-26T03:10:02;1.50;;;1.50;;
9948;SDS011;5013;51.840;8.276;2024-02-26T03:12:29;1.40;;;1.30;;
9948;SDS011;5013;51.840;8.276;2024-02-26T03:14:55;1.30;;;1.30;;
9948;SDS011;5013;51.840;8.276;2024-02-26T03:17:21;1.77;;;1.47;;
9948;SDS011;5013;51.840;8.276;2024-02-26T03:19:46;1.40;;;1.40;;
9948;SDS011;5013;51.840;8.276;2024-02-26T03:22:12;1.20;;;1.20;;
9948;SDS011;5013;51.840;8.276;2024-02-26T03:24:38;2.33;;;1.40;;
9948;SDS011;5013;51.840;8.276;2024-02-26T03:27:04;1.47;;;1.37;;
9948;SDS011;5013;51.840;8.276;2024-02-26T03:29:34;1.37;;;1.37;;
9948;SDS011;5013;51.840;8.276;2024-02-26T03:32:00;3.43;;;1.40;;
9948;SDS011;5013;51.840;8.276;2024-02-26T03:34:26;1.50;;;1.40;;
9948;SDS011;5013;51.840;8.276;2024-02-26T03:36:52;1.60;;;1.50;;
9948;SDS011;5013;51.840;8.276;2024-02-26T03:39:17;2.40;;;1.70;;
9948;SDS011;5013;51.840;8.276;2024-02-26T03:41:43;1.83;;;1.50;;
9948;SDS011;5013;51.840;8.276;2024-02-26T03:44:08;1.60;;;1.50;;
9948;SDS011;5013;51.840;8.276;2024-02-26T03:46:34;1.60;;;1.43;;
9948;SDS011;5013;51.840;8.276;2024-02-26T03:49:00;1.80;;;1.70;;
9948;SDS011;5013;51.840;8.276;2024-02-26T03:51:25;1.63;;;1.53;;
9948;SDS011;5013;51.840;8.276;2024-02-26T03:53:53;2.00;;;1.50;;
9948;SDS011;5013;51.840;8.276;2024-02-26T03:56:18;1.73;;;1.63;;
9948;SDS011;5013;51.840;8.276;2024-02-26T03:58:45;1.73;;;1.63;;
9948;SDS011;5013;51.840;8.276;2024-02-26T04:01:11;1.80;;;1.70;;
9948;SDS011;5013;51.840;8.276;2024-02-26T04:03:36;1.50;;;1.50;;
9948;SDS011;5013;51.840;8.276;2024-02-26T04:06:02;1.60;;;1.50;;
9948;SDS011;5013;51.840;8.276;2024-02-26T04:08:28;1.80;;;1.70;;
9948;SDS011;5013;51.840;8.276;2024-02-26T04:10:54;1.60;;;1.50;;
9948;SDS011;5013;51.840;8.276;2024-02-26T04:13:19;1.40;;;1.40;;
9948;SDS011;5013;51.840;8.276;2024-02-26T04:15:45;2.03;;;1.90;;
9948;SDS011;5013;51.840;8.276;2024-02-26T04:18:11;1.97;;;1.87;;
9948;SDS011;5013;51.840;8.276;2024-02-26T04:20:37;2.00;;;1.90;;
9948;SDS011;5013;51.840;8.276;2024-02-26T04:23:03;2.63;;;1.60;;
9948;SDS011;5013;51.840;8.276;2024-02-26T04:25:29;2.00;;;1.90;;
9948;SDS011;5013;51.840;8.276;2024-02-26T04:27:54;1.90;;;1.80;;
9948;SDS011;5013;51.840;8.276;2024-02-26T04:30:20;2.13;;;2.03;;
9948;SDS011;5013;51.840;8.276;2024-02-26T04:32:45;3.03;;;2.70;;
9948;SDS011;5013;51.840;8.276;2024-02-26T04:35:11;6.33;;;4.93;;
9948;SDS011;5013;51.840;8.276;2024-02-26T04:37:36;2.90;;;2.60;;
9948;SDS011;5013;51.840;8.276;2024-02-26T04:40:03;2.30;;;2.00;;
9948;SDS011;5013;51.840;8.276;2024-02-26T04:42:29;2.87;;;2.17;;
9948;SDS011;5013;51.840;8.276;2024-02-26T04:44:54;2.67;;;2.47;;
9948;SDS011;5013;51.840;8.276;2024-02-26T04:47:20;4.30;;;3.10;;
9948;SDS011;5013;51.840;8.276;2024-02-26T04:49:47;4.37;;;3.63;;
9948;SDS011;5013;51.840;8.276;2024-02-26T04:52:14;5.67;;;4.00;;
9948;SDS011;5013;51.840;8.276;2024-02-26T04:54:40;5.60;;;4.07;;
9948;SDS011;5013;51.840;8.276;2024-02-26T04:57:05;5.23;;;3.73;;
9948;SDS011;5013;51.840;8.276;2024-02-26T04:59:31;5.23;;;3.43;;
9948;SDS011;5013;51.840;8.276;2024-02-26T05:01:56;6.07;;;4.43;;
9948;SDS011;5013;51.840;8.276;2024-02-26T05:04:22;4.00;;;3.70;;
9948;SDS011;5013;51.840;8.276;2024-02-26T05:06:47;5.93;;;4.30;;
9948;SDS011;5013;51.840;8.276;2024-02-26T05:09:13;3.40;;;3.10;;
9948;SDS011;5013;51.840;8.276;2024-02-26T05:11:38;2.87;;;2.60;;
9948;SDS011;5013;51.840;8.276;2024-02-26T05:14:04;2.33;;;2.20;;
9948;SDS011;5013;51.840;8.276;2024-02-26T05:16:29;2.47;;;1.90;;
9948;SDS011;5013;51.840;8.276;2024-02-26T05:18:56;1.97;;;1.87;;
9948;SDS011;5013;51.840;8.276;2024-02-26T05:21:22;1.70;;;1.70;;
9948;SDS011;5013;51.840;8.276;2024-02-26T05:23:47;2.07;;;1.87;;
9948;SDS011;5013;51.840;8.276;2024-02-26T05:26:18;2.03;;;1.90;;
9948;SDS011;5013;51.840;8.276;2024-02-26T05:28:45;1.80;;;1.80;;
9948;SDS011;5013;51.840;8.276;2024-02-26T05:31:12;1.70;;;1.60;;
9948;SDS011;5013;51.840;8.276;2024-02-26T05:33:38;2.00;;;1.90;;
9948;SDS011;5013;51.840;8.276;2024-02-26T05:36:04;1.40;;;1.40;;
9948;SDS011;5013;51.840;8.276;2024-02-26T05:38:30;3.60;;;1.63;;
9948;SDS011;5013;51.840;8.276;2024-02-26T05:40:56;1.40;;;1.40;;
9948;SDS011;5013;51.840;8.276;2024-02-26T05:43:23;5.20;;;1.67;;
9948;SDS011;5013;51.840;8.276;2024-02-26T05:45:49;2.20;;;2.00;;
9948;SDS011;5013;51.840;8.276;2024-02-26T05:48:15;2.60;;;1.70;;
9948;SDS011;5013;51.840;8.276;2024-02-26T05:50:41;1.83;;;1.73;;
9948;SDS011;5013;51.840;8.276;2024-02-26T05:53:06;1.60;;;1.50;;
9948;SDS011;5013;51.840;8.276;2024-02-26T05:55:32;1.10;;;1.10;;
9948;SDS011;5013;51.840;8.276;2024-02-26T05:57:57;1.73;;;1.67;;
9948;SDS011;5013;51.840;8.276;2024-02-26T06:00:23;1.93;;;1.50;;
9948;SDS011;5013;51.840;8.276;2024-02-26T06:02:48;2.23;;;1.40;;
9948;SDS011;5013;51.840;8.276;2024-02-26T06:05:14;1.57;;;1.47;;
9948;SDS011;5013;51.840;8.276;2024-02-26T06:07:40;1.60;;;1.60;;
9948;SDS011;5013;51.840;8.276;2024-02-26T06:10:05;1.87;;;1.60;;
9948;SDS011;5013;51.840;8.276;2024-02-26T06:12:31;1.70;;;1.60;;
9948;SDS011;5013;51.840;8.276;2024-02-26T06:14:59;1.80;;;1.70;;
9948;SDS011;5013;51.840;8.276;2024-02-26T06:17:26;2.40;;;1.70;;
9948;SDS011;5013;51.840;8.276;2024-02-26T06:19:52;2.00;;;1.90;;
9948;SDS011;5013;51.840;8.276;2024-02-26T06:22:18;2.20;;;2.10;;
9948;SDS011;5013;51.840;8.276;2024-02-26T06:24:43;5.03;;;3.13;;
9948;SDS011;5013;51.840;8.276;2024-02-26T06:27:09;4.47;;;2.47;;
9948;SDS011;5013;51.840;8.276;2024-02-26T06:29:34;4.37;;;2.87;;
9948;SDS011;5013;51.840;8.276;2024-02-26T06:32:00;3.77;;;2.90;;
9948;SDS011;5013;51.840;8.276;2024-02-26T06:34:25;3.10;;;2.90;;
9948;SDS011;5013;51.840;8.276;2024-02-26T06:36:51;3.10;;;2.90;;
9948;SDS011;5013;51.840;8.276;2024-02-26T06:39:16;3.73;;;2.37;;
9948;SDS011;5013;51.840;8.276;2024-02-26T06:41:42;3.80;;;2.67;;
9948;SDS011;5013;51.840;8.276;2024-02-26T06:44:08;3.07;;;2.60;;
9948;SDS011;5013;51.840;8.276;2024-02-26T06:46:34;1.97;;;1.87;;
9948;SDS011;5013;51.840;8.276;2024-02-26T06:48:59;2.80;;;2.27;;
9948;SDS011;5013;51.840;8.276;2024-02-26T06:51:25;3.63;;;1.30;;
9948;SDS011;5013;51.840;8.276;2024-02-26T06:53:51;1.93;;;1.83;;
9948;SDS011;5013;51.840;8.276;2024-02-26T06:56:16;2.00;;;1.77;;
9948;SDS011;5013;51.840;8.276;2024-02-26T06:58:42;3.50;;;1.80;;
9948;SDS011;5013;51.840;8.276;2024-02-26T07:01:07;1.90;;;1.80;;
9948;SDS011;5013;51.840;8.276;2024-02-26T07:03:33;3.23;;;1.40;;
9948;SDS011;5013;51.840;8.276;2024-02-26T07:05:59;5.77;;;1.40;;
9948;SDS011;5013;51.840;8.276;2024-02-26T07:08:25;1.50;;;1.40;;
9948;SDS011;5013;51.840;8.276;2024-02-26T07:10:50;1.60;;;1.60;;
9948;SDS011;5013;51.840;8.276;2024-02-26T07:13:16;1.47;;;1.47;;
9948;SDS011;5013;51.840;8.276;2024-02-26T07:15:41;2.10;;;1.70;;
9948;SDS011;5013;51.840;8.276;2024-02-26T07:18:07;2.10;;;1.80;;
9948;SDS011;5013;51.840;8.276;2024-02-26T07:20:32;1.80;;;1.70;;
9948;SDS011;5013;51.840;8.276;2024-02-26T07:22:58;1.70;;;1.60;;
9948;SDS011;5013;51.840;8.276;2024-02-26T07:25:23;5.80;;;2.00;;
9948;SDS011;5013;51.840;8.276;2024-02-26T07:27:49;2.20;;;2.00;;
9948;SDS011;5013;51.840;8.276;2024-02-26T07:30:15;2.03;;;1.93;;
9948;SDS011;5013;51.840;8.276;2024-02-26T07:32:42;3.20;;;1.80;;
9948;SDS011;5013;51.840;8.276;2024-02-26T07:35:08;2.00;;;1.73;;
9948;SDS011;5013;51.840;8.276;2024-02-26T07:37:33;2.47;;;2.27;;
9948;SDS011;5013;51.840;8.276;2024-02-26T07:39:59;2.03;;;1.90;;
9948;SDS011;5013;51.840;8.276;2024-02-26T07:42:25;5.23;;;2.50;;
9948;SDS011;5013;51.840;8.276;2024-02-26T07:44:51;2.97;;;2.13;;
9948;SDS011;5013;51.840;8.276;2024-02-26T07:47:17;3.60;;;2.10;;
9948;SDS011;5013;51.840;8.276;2024-02-26T07:49:43;2.50;;;2.00;;
9948;SDS011;5013;51.840;8.276;2024-02-26T07:52:09;2.27;;;2.13;;
9948;SDS011;5013;51.840;8.276;2024-02-26T07:54:34;3.07;;;2.27;;
9948;SDS011;5013;51.840;8.276;2024-02-26T07:57:00;3.00;;;1.93;;
9948;SDS011;5013;51.840;8.276;2024-02-26T07:59:26;2.00;;;1.90;;
9948;SDS011;5013;51.840;8.276;2024-02-26T08:01:51;2.13;;;2.00;;
9948;SDS011;5013;51.840;8.276;2024-02-26T08:04:17;2.30;;;2.20;;
9948;SDS011;5013;51.840;8.276;2024-02-26T08:06:42;2.73;;;2.50;;
9948;SDS011;5013;51.840;8.276;2024-02-26T08:09:08;3.67;;;3.40;;
9948;SDS011;5013;51.840;8.276;2024-02-26T08:11:34;4.57;;;4.07;;
9948;SDS011;5013;51.840;8.276;2024-02-26T08:14:00;3.17;;;2.67;;
9948;SDS011;5013;51.840;8.276;2024-02-26T08:16:25;2.67;;;2.40;;
9948;SDS011;5013;51.840;8.276;2024-02-26T08:18:51;2.10;;;2.00;;
9948;SDS011;5013;51.840;8.276;2024-02-26T08:21:17;4.03;;;1.97;;
9948;SDS011;5013;51.840;8.276;2024-02-26T08:23:45;3.27;;;2.40;;
9948;SDS011;5013;51.840;8.276;2024-02-26T08:26:11;3.30;;;2.93;;
9948;SDS011;5013;51.840;8.276;2024-02-26T08:28:37;7.97;;;3.53;;
9948;SDS011;5013;51.840;8.276;2024-02-26T08:31:03;5.37;;;3.43;;
9948;SDS011;5013;51.840;8.276;2024-02-26T08:33:29;3.20;;;2.90;;
9948;SDS011;5013;51.840;8.276;2024-02-26T08:35:55;2.80;;;2.60;;
9948;SDS011;5013;51.840;8.276;2024-02-26T08:38:21;3.63;;;2.57;;
9948;SDS011;5013;51.840;8.276;2024-02-26T08:40:48;2.40;;;2.20;;
9948;SDS011;5013;51.840;8.276;2024-02-26T08:43:13;3.37;;;2.40;;
9948;SDS011;5013;51.840;8.276;2024-02-26T08:45:39;2.53;;;2.43;;
9948;SDS011;5013;51.840;8.276;2024-02-26T08:48:04;2.80;;;2.60;;
9948;SDS011;5013;51.840;8.276;2024-02-26T08:50:30;2.60;;;2.40;;
9948;SDS011;5013;51.840;8.276;2024-02-26T08:52:56;4.63;;;2.40;;
9948;SDS011;5013;51.840;8.276;2024-02-26T08:55:21;3.17;;;2.53;;
9948;SDS011;5013;51.840;8.276;2024-02-26T08:57:47;3.00;;;2.70;;
9948;SDS011;5013;51.840;8.276;2024-02-26T09:00:13;3.50;;;2.50;;
9948;SDS011;5013;51.840;8.276;2024-02-26T09:02:40;3.57;;;2.80;;
9948;SDS011;5013;51.840;8.276;2024-02-26T09:05:08;4.10;;;2.53;;
9948;SDS011;5013;51.840;8.276;2024-02-26T09:07:35;5.47;;;2.70;;
9948;SDS011;5013;51.840;8.276;2024-02-26T09:10:01;3.03;;;2.77;;
9948;SDS011;5013;51.840;8.276;2024-02-26T09:12:27;3.50;;;2.70;;
9948;SDS011;5013;51.840;8.276;2024-02-26T09:14:53;2.93;;;2.60;;
9948;SDS011;5013;51.840;8.276;2024-02-26T09:17:20;3.77;;;2.47;;
9948;SDS011;5013;51.840;8.276;2024-02-26T09:19:46;2.83;;;2.60;;
9948;SDS011;5013;51.840;8.276;2024-02-26T09:22:11;6.23;;;2.90;;
9948;SDS011;5013;51.840;8.276;2024-02-26T09:24:37;4.17;;;3.00;;
9948;SDS011;5013;51.840;8.276;2024-02-26T09:27:03;3.37;;;3.07;;
9948;SDS011;5013;51.840;8.276;2024-02-26T09:29:29;4.07;;;3.60;;
9948;SDS011;5013;51.840;8.276;2024-02-26T09:31:54;5.73;;;2.93;;
9948;SDS011;5013;51.840;8.276;2024-02-26T09:34:20;3.83;;;3.20;;
9948;SDS011;5013;51.840;8.276;2024-02-26T09:36:45;4.73;;;3.30;;
9948;SDS011;5013;51.840;8.276;2024-02-26T09:39:11;3.33;;;3.13;;
9948;SDS011;5013;51.840;8.276;2024-02-26T09:41:37;3.73;;;3.43;;
9948;SDS011;5013;51.840;8.276;2024-02-26T09:44:04;4.53;;;3.27;;
9948;SDS011;5013;51.840;8.276;2024-02-26T09:46:30;3.83;;;3.47;;
9948;SDS011;5013;51.840;8.276;2024-02-26T09:48:56;5.77;;;3.30;;
9948;SDS011;5013;51.840;8.276;2024-02-26T09:51:25;4.43;;;4.03;;
9948;SDS011;5013;51.840;8.276;2024-02-26T09:53:52;6.37;;;4.00;;
9948;SDS011;5013;51.840;8.276;2024-02-26T09:56:18;4.90;;;3.90;;
9948;SDS011;5013;51.840;8.276;2024-02-26T09:58:44;5.57;;;3.97;;
9948;SDS011;5013;51.840;8.276;2024-02-26T10:01:17;4.37;;;3.97;;
9948;SDS011;5013;51.840;8.276;2024-02-26T10:03:44;4.97;;;4.23;;
9948;SDS011;5013;51.840;8.276;2024-02-26T10:06:16;4.93;;;4.50;;
9948;SDS011;5013;51.840;8.276;2024-02-26T10:08:42;5.13;;;4.73;;
9948;SDS011;5013;51.840;8.276;2024-02-26T10:11:09;4.80;;;4.50;;
9948;SDS011;5013;51.840;8.276;2024-02-26T10:13:35;5.73;;;5.23;;
9948;SDS011;5013;51.840;8.276;2024-02-26T10:16:01;5.77;;;5.20;;
9948;SDS011;5013;51.840;8.276;2024-02-26T10:18:44;5.23;;;4.83;;
9948;SDS011;5013;51.840;8.276;2024-02-26T10:21:13;6.13;;;5.00;;
9948;SDS011;5013;51.840;8.276;2024-02-26T10:23:42;5.50;;;4.80;;
9948;SDS011;5013;51.840;8.276;2024-02-26T10:26:10;5.60;;;5.10;;
9948;SDS011;5013;51.840;8.276;2024-02-26T10:28:37;7.03;;;5.63;;
9948;SDS011;5013;51.840;8.276;2024-02-26T10:31:03;7.10;;;5.47;;
9948;SDS011;5013;51.840;8.276;2024-02-26T10:33:29;6.33;;;5.77;;
9948;SDS011;5013;51.840;8.276;2024-02-26T10:35:54;8.20;;;6.13;;
9948;SDS011;5013;51.840;8.276;2024-02-26T10:38:20;6.47;;;5.77;;
9948;SDS011;5013;51.840;8.276;2024-02-26T10:40:46;6.33;;;5.73;;
9948;SDS011;5013;51.840;8.276;2024-02-26T10:43:13;7.00;;;6.30;;
9948;SDS011;5013;51.840;8.276;2024-02-26T10:45:41;7.13;;;6.13;;
9948;SDS011;5013;51.840;8.276;2024-02-26T10:48:12;6.80;;;6.17;;
9948;SDS011;5013;51.840;8.276;2024-02-26T10:50:39;6.80;;;6.03;;
9948;SDS011;5013;51.840;8.276;2024-02-26T10:53:06;6.93;;;6.27;;
9948;SDS011;5013;51.840;8.276;2024-02-26T10:55:37;6.47;;;5.87;;
9948;SDS011;5013;51.840;8.276;2024-02-26T10:58:04;7.00;;;6.17;;
9948;SDS011;5013;51.840;8.276;2024-02-26T11:00:31;7.83;;;7.03;;
9948;SDS011;5013;51.840;8.276;2024-02-26T11:02:56;7.73;;;6.50;;
9948;SDS011;5013;51.840;8.276;2024-02-26T11:05:26;7.30;;;6.70;;
9948;SDS011;5013;51.840;8.276;2024-02-26T11:07:53;8.33;;;6.80;;
9948;SDS011;5013;51.840;8.276;2024-02-26T11:10:19;8.53;;;6.43;;
9948;SDS011;5013;51.840;8.276;2024-02-26T11:12:45;7.80;;;6.73;;
9948;SDS011;5013;51.840;8.276;2024-02-26T11:15:11;9.73;;;6.80;;
9948;SDS011;5013;51.840;8.276;2024-02-26T11:17:37;8.63;;;6.23;;
9948;SDS011;5013;51.840;8.276;2024-02-26T11:20:03;6.73;;;6.07;;
9948;SDS011;5013;51.840;8.276;2024-02-26T11:22:30;7.43;;;6.80;;
9948;SDS011;5013;51.840;8.276;2024-02-26T11:24:56;5.90;;;5.33;;
9948;SDS011;5013;51.840;8.276;2024-02-26T11:27:24;6.97;;;5.90;;
9948;SDS011;5013;51.840;8.276;2024-02-26T11:29:54;5.67;;;5.17;;
9948;SDS011;5013;51.840;8.276;2024-02-26T11:32:22;6.27;;;5.70;;
9948;SDS011;5013;51.840;8.276;2024-02-26T11:34:48;6.67;;;6.07;;
9948;SDS011;5013;51.840;8.276;2024-02-26T11:37:16;6.57;;;5.97;;
9948;SDS011;5013;51.840;8.276;2024-02-26T11:39:42;6.10;;;5.60;;
9948;SDS011;5013;51.840;8.276;2024-02-26T11:42:10;6.43;;;5.83;;
9948;SDS011;5013;51.840;8.276;2024-02-26T11:44:39;8.17;;;5.60;;
9948;SDS011;5013;51.840;8.276;2024-02-26T11:47:40;6.00;;;5.40;;
9948;SDS011;5013;51.840;8.276;2024-02-26T11:49:59;6.07;;;5.50;;
9948;SDS011;5013;51.840;8.276;2024-02-26T11:53:31;5.97;;;5.37;;
9948;SDS011;5013;51.840;8.276;2024-02-26T11:58:39;5.37;;;4.97;;
9948;SDS011;5013;51.840;8.276;2024-02-26T12:01:05;6.57;;;5.87;;
9948;SDS011;5013;51.840;8.276;2024-02-26T12:03:51;6.40;;;5.70;;
9948;SDS011;5013;51.840;8.276;2024-02-26T12:06:18;8.73;;;6.70;;
9948;SDS011;5013;51.840;8.276;2024-02-26T12:08:44;8.03;;;6.33;;
9948;SDS011;5013;51.840;8.276;2024-02-26T12:11:16;6.00;;;5.50;;
9948;SDS011;5013;51.840;8.276;2024-02-26T12:13:41;7.27;;;6.17;;
9948;SDS011;5013;51.840;8.276;2024-02-26T12:16:11;7.57;;;6.63;;
9948;SDS011;5013;51.840;8.276;2024-02-26T12:18:37;6.17;;;5.67;;
9948;SDS011;5013;51.840;8.276;2024-02-26T12:21:03;6.17;;;5.53;;
9948;SDS011;5013;51.840;8.276;2024-02-26T12:23:29;8.13;;;5.70;;
9948;SDS011;5013;51.840;8.276;2024-02-26T12:26:01;6.57;;;5.97;;
9948;SDS011;5013;51.840;8.276;2024-02-26T12:28:30;8.57;;;5.83;;
9948;SDS011;5013;51.840;8.276;2024-02-26T12:30:56;6.27;;;5.67;;
9948;SDS011;5013;51.840;8.276;2024-02-26T12:33:24;9.53;;;6.40;;
9948;SDS011;5013;51.840;8.276;2024-02-26T12:35:51;7.53;;;6.73;;
9948;SDS011;5013;51.840;8.276;2024-02-26T12:38:17;9.63;;;7.17;;
9948;SDS011;5013;51.840;8.276;2024-02-26T12:40:43;7.33;;;6.63;;
9948;SDS011;5013;51.840;8.276;2024-02-26T12:43:09;8.50;;;6.73;;
9948;SDS011;5013;51.840;8.276;2024-02-26T12:45:40;7.87;;;7.17;;
9948;SDS011;5013;51.840;8.276;2024-02-26T12:48:06;7.63;;;6.93;;
9948;SDS011;5013;51.840;8.276;2024-02-26T12:50:32;7.77;;;6.97;;
9948;SDS011;5013;51.840;8.276;2024-02-26T12:52:58;9.80;;;8.00;;
9948;SDS011;5013;51.840;8.276;2024-02-26T12:55:24;9.47;;;8.20;;
9948;SDS011;5013;51.840;8.276;2024-02-26T12:57:51;7.30;;;6.60;;
9948;SDS011;5013;51.840;8.276;2024-02-26T13:00:27;9.77;;;7.93;;
9948;SDS011;5013;51.840;8.276;2024-02-26T13:02:53;8.00;;;7.20;;
9948;SDS011;5013;51.840;8.276;2024-02-26T13:05:20;7.70;;;6.90;;
9948;SDS011;5013;51.840;8.276;2024-02-26T13:07:47;7.27;;;6.57;;
9948;SDS011;5013;51.840;8.276;2024-02-26T13:10:13;9.00;;;7.33;;
9948;SDS011;5013;51.840;8.276;2024-02-26T13:12:43;9.20;;;6.90;;
9948;SDS011;5013;51.840;8.276;2024-02-26T13:15:19;7.20;;;6.50;;
9948;SDS011;5013;51.840;8.276;2024-02-26T13:17:46;8.37;;;6.90;;
9948;SDS011;5013;51.840;8.276;2024-02-26T13:20:13;8.20;;;7.17;;
9948;SDS011;5013;51.840;8.276;2024-02-26T13:22:50;8.03;;;6.80;;
9948;SDS011;5013;51.840;8.276;2024-02-26T13:25:20;7.53;;;6.73;;
9948;SDS011;5013;51.840;8.276;2024-02-26T13:27:46;7.60;;;6.47;;
9948;SDS011;5013;51.840;8.276;2024-02-26T13:30:12;9.00;;;6.30;;
9948;SDS011;5013;51.840;8.276;2024-02-26T13:32:39;8.20;;;6.33;;
9948;SDS011;5013;51.840;8.276;2024-02-26T13:35:09;10.93;;;5.83;;
9948;SDS011;5013;51.840;8.276;2024-02-26T13:37:36;7.57;;;5.63;;
9948;SDS011;5013;51.840;8.276;2024-02-26T13:40:11;7.63;;;5.83;;
9948;SDS011;5013;51.840;8.276;2024-02-26T13:42:37;7.97;;;5.80;;
9948;SDS011;5013;51.840;8.276;2024-02-26T13:45:03;6.83;;;6.07;;
9948;SDS011;5013;51.840;8.276;2024-02-26T13:47:33;6.47;;;5.87;;
9948;SDS011;5013;51.840;8.276;2024-02-26T13:50:02;6.73;;;5.70;;
9948;SDS011;5013;51.840;8.276;2024-02-26T13:52:27;6.20;;;4.73;;
9948;SDS011;5013;51.840;8.276;2024-02-26T13:54:53;6.97;;;5.30;;
9948;SDS011;5013;51.840;8.276;2024-02-26T13:57:19;7.83;;;4.83;;
9948;SDS011;5013;51.840;8.276;2024-02-26T13:59:44;6.43;;;4.83;;
9948;SDS011;5013;51.840;8.276;2024-02-26T14:02:10;4.60;;;4.13;;
9948;SDS011;5013;51.840;8.276;2024-02-26T14:04:37;5.10;;;4.50;;
9948;SDS011;5013;51.840;8.276;2024-02-26T14:07:02;4.00;;;3.70;;
9948;SDS011;5013;51.840;8.276;2024-02-26T14:09:30;4.40;;;4.10;;
9948;SDS011;5013;51.840;8.276;2024-02-26T14:11:57;9.80;;;3.73;;
9948;SDS011;5013;51.840;8.276;2024-02-26T14:14:23;3.63;;;3.40;;
9948;SDS011;5013;51.840;8.276;2024-02-26T14:16:49;6.67;;;3.93;;
9948;SDS011;5013;51.840;8.276;2024-02-26T14:19:14;7.87;;;3.97;;
9948;SDS011;5013;51.840;8.276;2024-02-26T14:21:40;4.90;;;3.90;;
9948;SDS011;5013;51.840;8.276;2024-02-26T14:24:05;4.30;;;4.00;;
9948;SDS011;5013;51.840;8.276;2024-02-26T14:26:31;4.63;;;4.23;;
9948;SDS011;5013;51.840;8.276;2024-02-26T14:28:57;4.63;;;4.23;;
9948;SDS011;5013;51.840;8.276;2024-02-26T14:31:22;4.60;;;4.20;;
9948;SDS011;5013;51.840;8.276;2024-02-26T14:33:48;4.50;;;4.10;;
9948;SDS011;5013;51.840;8.276;2024-02-26T14:36:15;6.20;;;4.63;;
9948;SDS011;5013;51.840;8.276;2024-02-26T14:38:41;7.40;;;4.50;;
9948;SDS011;5013;51.840;8.276;2024-02-26T14:41:06;8.47;;;4.23;;
9948;SDS011;5013;51.840;8.276;2024-02-26T14:43:32;5.17;;;3.87;;
9948;SDS011;5013;51.840;8.276;2024-02-26T14:45:57;4.37;;;3.97;;
9948;SDS011;5013;51.840;8.276;2024-02-26T14:48:24;5.00;;;3.53;;
9948;SDS011;5013;51.840;8.276;2024-02-26T14:50:49;5.47;;;3.97;;
9948;SDS011;5013;51.840;8.276;2024-02-26T14:53:15;4.37;;;3.70;;
9948;SDS011;5013;51.840;8.276;2024-02-26T14:55:42;4.40;;;4.00;;
9948;SDS011;5013;51.840;8.276;2024-02-26T14:58:08;4.73;;;3.80;;
9948;SDS011;5013;51.840;8.276;2024-02-26T15:00:35;4.53;;;4.13;;
9948;SDS011;5013;51.840;8.276;2024-02-26T15:03:01;6.93;;;5.53;;
9948;SDS011;5013;51.840;8.276;2024-02-26T15:05:27;6.13;;;4.90;;
9948;SDS011;5013;51.840;8.276;2024-02-26T15:07:52;7.13;;;5.80;;
9948;SDS011;5013;51.840;8.276;2024-02-26T15:10:18;6.53;;;4.50;;
9948;SDS011;5013;51.840;8.276;2024-02-26T15:12:44;7.53;;;4.20;;
9948;SDS011;5013;51.840;8.276;2024-02-26T15:15:09;4.83;;;4.40;;